sensor_id;sensor_type;location;lat;lon;timestamp;P1;durP1;ratioP1;P2;durP2;ratioP2
12052;SDS011;6087;48.982;12.064;2023-02-21T00:00:24;4.28;;;1.77;;
12052;SDS011;6087;48.982;12.064;2023-02-21T00:03:08;3.63;;;1.90;;
12052;SDS011;6087;48.982;12.064;2023-02-21T00:05:52;3.35;;;2.00;;
12052;SDS011;6087;48.982;12.064;2023-02-21T00:08:38;5.20;;;1.60;;
12052;SDS011;6087;48.982;12.064;2023-02-21T00:11:22;1.80;;;1.45;;
12052;SDS011;6087;48.982;12.064;2023-02-21T00:14:07;3.58;;;1.90;;
12052;SDS011;6087;48.982;12.064;2023-02-21T00:16:51;5.85;;;1.60;;
12052;SDS011;6087;48.982;12.064;2023-02-21T00:19:35;5.25;;;2.28;;
12052;SDS011;6087;48.982;12.064;2023-02-21T00:22:19;2.58;;;1.80;;
12052;SDS011;6087;48.982;12.064;2023-02-21T00:25:05;3.05;;;1.90;;
12052;SDS011;6087;48.982;12.064;2023-02-21T00:27:50;2.65;;;1.80;;
12052;SDS011;6087;48.982;12.064;2023-02-21T00:30:34;5.60;;;1.83;;
12052;SDS011;6087;48.982;12.064;2023-02-21T00:33:18;3.38;;;1.98;;
12052;SDS011;6087;48.982;12.064;2023-02-21T00:36:02;4.13;;;2.08;;
12052;SDS011;6087;48.982;12.064;2023-02-21T00:38:47;4.03;;;1.95;;
12052;SDS011;6087;48.982;12.064;2023-02-21T00:41:32;2.97;;;2.05;;
12052;SDS011;6087;48.982;12.064;2023-02-21T00:44:16;2.95;;;2.00;;
12052;SDS011;6087;48.982;12.064;2023-02-21T00:47:01;3.17;;;1.92;;
12052;SDS011;6087;48.982;12.064;2023-02-21T00:49:45;2.88;;;2.10;;
12052;SDS011;6087;48.982;12.064;2023-02-21T00:52:29;3.45;;;2.03;;
12052;SDS011;6087;48.982;12.064;2023-02-21T00:55:13;3.40;;;2.33;;
12052;SDS011;6087;48.982;12.064;2023-02-21T00:57:59;5.17;;;1.80;;
12052;SDS011;6087;48.982;12.064;2023-02-21T01:00:43;2.72;;;1.88;;
12052;SDS011;6087;48.982;12.064;2023-02-21T01:03:27;5.25;;;2.05;;
12052;SDS011;6087;48.982;12.064;2023-02-21T01:06:11;3.83;;;2.37;;
12052;SDS011;6087;48.982;12.064;2023-02-21T01:08:55;2.70;;;2.00;;
12052;SDS011;6087;48.982;12.064;2023-02-21T01:11:40;4.53;;;1.80;;
12052;SDS011;6087;48.982;12.064;2023-02-21T01:14:26;3.88;;;2.00;;
12052;SDS011;6087;48.982;12.064;2023-02-21T01:17:10;1.90;;;1.75;;
12052;SDS011;6087;48.982;12.064;2023-02-21T01:19:54;5.63;;;2.37;;
12052;SDS011;6087;48.982;12.064;2023-02-21T01:22:38;7.60;;;2.10;;
12052;SDS011;6087;48.982;12.064;2023-02-21T01:25:22;3.10;;;2.30;;
12052;SDS011;6087;48.982;12.064;2023-02-21T01:28:06;3.33;;;1.93;;
12052;SDS011;6087;48.982;12.064;2023-02-21T01:30:52;3.40;;;1.73;;
12052;SDS011;6087;48.982;12.064;2023-02-21T01:33:37;5.87;;;2.33;;
12052;SDS011;6087;48.982;12.064;2023-02-21T01:36:23;5.00;;;1.83;;
12052;SDS011;6087;48.982;12.064;2023-02-21T01:39:07;7.73;;;2.13;;
12052;SDS011;6087;48.982;12.064;2023-02-21T01:41:52;3.10;;;1.90;;
12052;SDS011;6087;48.982;12.064;2023-02-21T01:44:37;1.93;;;1.73;;
12052;SDS011;6087;48.982;12.064;2023-02-21T01:47:24;3.33;;;2.07;;
12052;SDS011;6087;48.982;12.064;2023-02-21T01:50:11;4.90;;;2.47;;
12052;SDS011;6087;48.982;12.064;2023-02-21T01:53:01;2.30;;;1.90;;
12052;SDS011;6087;48.982;12.064;2023-02-21T01:55:48;2.97;;;2.42;;
12052;SDS011;6087;48.982;12.064;2023-02-21T01:58:32;3.35;;;2.20;;
12052;SDS011;6087;48.982;12.064;2023-02-21T02:01:20;3.30;;;2.20;;
12052;SDS011;6087;48.982;12.064;2023-02-21T02:04:11;3.57;;;2.03;;
12052;SDS011;6087;48.982;12.064;2023-02-21T02:06:55;6.03;;;2.20;;
12052;SDS011;6087;48.982;12.064;2023-02-21T02:09:40;3.03;;;1.67;;
12052;SDS011;6087;48.982;12.064;2023-02-21T02:12:42;3.97;;;2.03;;
12052;SDS011;6087;48.982;12.064;2023-02-21T02:15:36;3.90;;;2.23;;
12052;SDS011;6087;48.982;12.064;2023-02-21T02:21:31;4.70;;;1.87;;
12052;SDS011;6087;48.982;12.064;2023-02-21T02:36:22;2.10;;;1.73;;
12052;SDS011;6087;48.982;12.064;2023-02-21T02:38:56;3.57;;;2.10;;
12052;SDS011;6087;48.982;12.064;2023-02-21T02:41:32;4.13;;;2.10;;
12052;SDS011;6087;48.982;12.064;2023-02-21T02:44:09;4.43;;;2.23;;
12052;SDS011;6087;48.982;12.064;2023-02-21T02:46:40;3.90;;;2.27;;
12052;SDS011;6087;48.982;12.064;2023-02-21T02:49:11;4.17;;;1.90;;
12052;SDS011;6087;48.982;12.064;2023-02-21T02:51:45;2.23;;;2.03;;
12052;SDS011;6087;48.982;12.064;2023-02-21T02:54:13;2.57;;;2.13;;
12052;SDS011;6087;48.982;12.064;2023-02-21T02:56:40;2.43;;;2.20;;
12052;SDS011;6087;48.982;12.064;2023-02-21T02:59:08;3.00;;;2.13;;
12052;SDS011;6087;48.982;12.064;2023-02-21T03:07:36;2.53;;;2.07;;
12052;SDS011;6087;48.982;12.064;2023-02-21T03:10:13;4.57;;;2.00;;
12052;SDS011;6087;48.982;12.064;2023-02-21T03:12:47;4.57;;;2.00;;
12052;SDS011;6087;48.982;12.064;2023-02-21T03:15:20;3.33;;;2.27;;
12052;SDS011;6087;48.982;12.064;2023-02-21T03:17:50;2.63;;;2.03;;
12052;SDS011;6087;48.982;12.064;2023-02-21T03:20:22;3.37;;;2.30;;
12052;SDS011;6087;48.982;12.064;2023-02-21T03:22:51;3.33;;;1.97;;
12052;SDS011;6087;48.982;12.064;2023-02-21T03:25:21;2.90;;;2.00;;
12052;SDS011;6087;48.982;12.064;2023-02-21T03:27:50;3.53;;;2.10;;
12052;SDS011;6087;48.982;12.064;2023-02-21T03:30:19;2.10;;;1.83;;
12052;SDS011;6087;48.982;12.064;2023-02-21T03:32:47;2.53;;;2.33;;
12052;SDS011;6087;48.982;12.064;2023-02-21T03:35:16;3.03;;;2.07;;
12052;SDS011;6087;48.982;12.064;2023-02-21T03:37:44;3.60;;;2.00;;
12052;SDS011;6087;48.982;12.064;2023-02-21T03:40:14;4.27;;;2.03;;
12052;SDS011;6087;48.982;12.064;2023-02-21T03:42:43;3.87;;;2.47;;
12052;SDS011;6087;48.982;12.064;2023-02-21T03:45:10;2.13;;;1.67;;
12052;SDS011;6087;48.982;12.064;2023-02-21T03:47:37;2.73;;;2.00;;
12052;SDS011;6087;48.982;12.064;2023-02-21T03:50:04;4.33;;;2.47;;
12052;SDS011;6087;48.982;12.064;2023-02-21T03:52:31;3.77;;;1.90;;
12052;SDS011;6087;48.982;12.064;2023-02-21T03:54:58;3.07;;;1.93;;
12052;SDS011;6087;48.982;12.064;2023-02-21T03:57:27;3.97;;;2.00;;
12052;SDS011;6087;48.982;12.064;2023-02-21T03:59:54;2.60;;;2.27;;
12052;SDS011;6087;48.982;12.064;2023-02-21T04:02:21;4.83;;;2.67;;
12052;SDS011;6087;48.982;12.064;2023-02-21T04:04:48;5.50;;;2.30;;
12052;SDS011;6087;48.982;12.064;2023-02-21T04:07:15;3.73;;;2.13;;
12052;SDS011;6087;48.982;12.064;2023-02-21T04:09:42;3.50;;;2.40;;
12052;SDS011;6087;48.982;12.064;2023-02-21T04:12:10;5.47;;;3.33;;
12052;SDS011;6087;48.982;12.064;2023-02-21T04:14:39;4.27;;;2.30;;
12052;SDS011;6087;48.982;12.064;2023-02-21T04:17:06;4.20;;;2.63;;
12052;SDS011;6087;48.982;12.064;2023-02-21T04:19:33;3.07;;;2.23;;
12052;SDS011;6087;48.982;12.064;2023-02-21T04:22:00;3.53;;;2.47;;
12052;SDS011;6087;48.982;12.064;2023-02-21T04:24:27;3.27;;;2.03;;
12052;SDS011;6087;48.982;12.064;2023-02-21T04:26:54;4.33;;;2.70;;
12052;SDS011;6087;48.982;12.064;2023-02-21T04:29:22;7.33;;;2.27;;
12052;SDS011;6087;48.982;12.064;2023-02-21T04:31:50;3.37;;;2.47;;
12052;SDS011;6087;48.982;12.064;2023-02-21T04:34:17;2.43;;;1.93;;
12052;SDS011;6087;48.982;12.064;2023-02-21T04:36:44;3.10;;;2.37;;
12052;SDS011;6087;48.982;12.064;2023-02-21T04:39:11;4.53;;;2.13;;
12052;SDS011;6087;48.982;12.064;2023-02-21T04:41:38;4.57;;;2.37;;
12052;SDS011;6087;48.982;12.064;2023-02-21T04:44:06;4.37;;;2.50;;
12052;SDS011;6087;48.982;12.064;2023-02-21T04:46:33;3.63;;;2.50;;
12052;SDS011;6087;48.982;12.064;2023-02-21T04:49:01;6.53;;;2.20;;
12052;SDS011;6087;48.982;12.064;2023-02-21T04:51:28;4.33;;;2.33;;
12052;SDS011;6087;48.982;12.064;2023-02-21T04:53:55;4.83;;;2.47;;
12052;SDS011;6087;48.982;12.064;2023-02-21T04:56:23;2.20;;;1.83;;
12052;SDS011;6087;48.982;12.064;2023-02-21T04:58:51;4.60;;;2.40;;
12052;SDS011;6087;48.982;12.064;2023-02-21T05:01:18;3.00;;;2.10;;
12052;SDS011;6087;48.982;12.064;2023-02-21T05:03:46;3.03;;;2.43;;
12052;SDS011;6087;48.982;12.064;2023-02-21T05:06:17;4.90;;;1.90;;
12052;SDS011;6087;48.982;12.064;2023-02-21T05:08:45;2.00;;;1.80;;
12052;SDS011;6087;48.982;12.064;2023-02-21T05:11:12;2.13;;;1.93;;
12052;SDS011;6087;48.982;12.064;2023-02-21T05:13:39;2.87;;;2.07;;
12052;SDS011;6087;48.982;12.064;2023-02-21T05:16:06;4.67;;;2.33;;
12052;SDS011;6087;48.982;12.064;2023-02-21T05:18:33;4.97;;;2.83;;
12052;SDS011;6087;48.982;12.064;2023-02-21T05:21:02;5.20;;;2.60;;
12052;SDS011;6087;48.982;12.064;2023-02-21T05:23:31;2.20;;;2.00;;
12052;SDS011;6087;48.982;12.064;2023-02-21T05:26:00;5.90;;;2.50;;
12052;SDS011;6087;48.982;12.064;2023-02-21T05:28:29;6.60;;;2.47;;
12052;SDS011;6087;48.982;12.064;2023-02-21T05:30:56;6.83;;;2.60;;
12052;SDS011;6087;48.982;12.064;2023-02-21T05:33:29;3.70;;;2.67;;
12052;SDS011;6087;48.982;12.064;2023-02-21T05:35:56;2.43;;;2.23;;
12052;SDS011;6087;48.982;12.064;2023-02-21T05:38:24;3.83;;;2.80;;
12052;SDS011;6087;48.982;12.064;2023-02-21T05:40:53;3.80;;;2.73;;
12052;SDS011;6087;48.982;12.064;2023-02-21T05:43:20;4.70;;;3.03;;
12052;SDS011;6087;48.982;12.064;2023-02-21T05:45:47;4.33;;;2.87;;
12052;SDS011;6087;48.982;12.064;2023-02-21T05:48:14;5.63;;;3.00;;
12052;SDS011;6087;48.982;12.064;2023-02-21T05:50:41;3.80;;;2.63;;
12052;SDS011;6087;48.982;12.064;2023-02-21T05:53:09;5.93;;;2.80;;
12052;SDS011;6087;48.982;12.064;2023-02-21T05:55:36;3.83;;;2.53;;
12052;SDS011;6087;48.982;12.064;2023-02-21T05:58:04;5.83;;;2.80;;
12052;SDS011;6087;48.982;12.064;2023-02-21T06:00:31;3.93;;;2.63;;
12052;SDS011;6087;48.982;12.064;2023-02-21T06:02:58;8.13;;;3.03;;
12052;SDS011;6087;48.982;12.064;2023-02-21T06:05:25;6.80;;;3.03;;
12052;SDS011;6087;48.982;12.064;2023-02-21T06:07:52;3.00;;;2.37;;
12052;SDS011;6087;48.982;12.064;2023-02-21T06:10:19;3.80;;;2.80;;
12052;SDS011;6087;48.982;12.064;2023-02-21T06:12:46;9.17;;;3.53;;
12052;SDS011;6087;48.982;12.064;2023-02-21T06:15:15;4.83;;;3.03;;
12052;SDS011;6087;48.982;12.064;2023-02-21T06:17:42;4.53;;;3.27;;
12052;SDS011;6087;48.982;12.064;2023-02-21T06:20:10;6.53;;;3.20;;
12052;SDS011;6087;48.982;12.064;2023-02-21T06:22:40;4.03;;;3.10;;
12052;SDS011;6087;48.982;12.064;2023-02-21T06:25:08;6.97;;;3.80;;
12052;SDS011;6087;48.982;12.064;2023-02-21T06:27:34;4.40;;;3.63;;
12052;SDS011;6087;48.982;12.064;2023-02-21T06:30:02;7.73;;;3.97;;
12052;SDS011;6087;48.982;12.064;2023-02-21T06:32:31;7.63;;;4.00;;
12052;SDS011;6087;48.982;12.064;2023-02-21T06:34:58;4.70;;;3.50;;
12052;SDS011;6087;48.982;12.064;2023-02-21T06:37:25;5.13;;;2.93;;
12052;SDS011;6087;48.982;12.064;2023-02-21T06:39:52;10.70;;;5.50;;
12052;SDS011;6087;48.982;12.064;2023-02-21T06:42:19;5.33;;;3.30;;
12052;SDS011;6087;48.982;12.064;2023-02-21T06:44:47;4.83;;;3.10;;
12052;SDS011;6087;48.982;12.064;2023-02-21T06:47:14;5.33;;;3.50;;
12052;SDS011;6087;48.982;12.064;2023-02-21T06:49:43;4.53;;;3.43;;
12052;SDS011;6087;48.982;12.064;2023-02-21T06:52:10;11.63;;;3.60;;
12052;SDS011;6087;48.982;12.064;2023-02-21T06:54:37;4.53;;;3.20;;
12052;SDS011;6087;48.982;12.064;2023-02-21T06:57:04;4.37;;;3.37;;
12052;SDS011;6087;48.982;12.064;2023-02-21T06:59:31;4.50;;;3.10;;
12052;SDS011;6087;48.982;12.064;2023-02-21T07:01:58;3.03;;;2.73;;
12052;SDS011;6087;48.982;12.064;2023-02-21T07:04:26;4.60;;;3.43;;
12052;SDS011;6087;48.982;12.064;2023-02-21T07:06:55;4.33;;;2.80;;
12052;SDS011;6087;48.982;12.064;2023-02-21T07:09:21;4.50;;;3.53;;
12052;SDS011;6087;48.982;12.064;2023-02-21T07:11:48;5.13;;;2.80;;
12052;SDS011;6087;48.982;12.064;2023-02-21T07:14:15;3.83;;;3.43;;
12052;SDS011;6087;48.982;12.064;2023-02-21T07:16:42;6.73;;;3.53;;
12052;SDS011;6087;48.982;12.064;2023-02-21T07:19:10;4.70;;;3.53;;
12052;SDS011;6087;48.982;12.064;2023-02-21T07:21:39;4.87;;;3.17;;
12052;SDS011;6087;48.982;12.064;2023-02-21T07:24:08;5.90;;;3.70;;
12052;SDS011;6087;48.982;12.064;2023-02-21T07:26:35;6.37;;;3.50;;
12052;SDS011;6087;48.982;12.064;2023-02-21T07:29:02;7.70;;;4.23;;
12052;SDS011;6087;48.982;12.064;2023-02-21T07:31:29;7.17;;;4.53;;
12052;SDS011;6087;48.982;12.064;2023-02-21T07:33:56;4.80;;;3.60;;
12052;SDS011;6087;48.982;12.064;2023-02-21T07:36:23;5.77;;;4.20;;
12052;SDS011;6087;48.982;12.064;2023-02-21T07:38:50;6.77;;;4.27;;
12052;SDS011;6087;48.982;12.064;2023-02-21T07:41:18;7.07;;;4.20;;
12052;SDS011;6087;48.982;12.064;2023-02-21T07:43:45;6.00;;;4.27;;
12052;SDS011;6087;48.982;12.064;2023-02-21T07:46:13;5.37;;;3.77;;
12052;SDS011;6087;48.982;12.064;2023-02-21T07:48:41;4.63;;;3.83;;
12052;SDS011;6087;48.982;12.064;2023-02-21T07:51:08;5.37;;;4.20;;
12052;SDS011;6087;48.982;12.064;2023-02-21T07:53:35;6.30;;;3.80;;
12052;SDS011;6087;48.982;12.064;2023-02-21T07:56:02;6.37;;;4.23;;
12052;SDS011;6087;48.982;12.064;2023-02-21T07:58:31;6.10;;;4.00;;
12052;SDS011;6087;48.982;12.064;2023-02-21T08:01:01;7.17;;;5.13;;
12052;SDS011;6087;48.982;12.064;2023-02-21T08:03:28;6.47;;;4.13;;
12052;SDS011;6087;48.982;12.064;2023-02-21T08:05:56;9.30;;;5.20;;
12052;SDS011;6087;48.982;12.064;2023-02-21T08:08:23;7.83;;;4.80;;
12052;SDS011;6087;48.982;12.064;2023-02-21T08:10:50;7.37;;;4.77;;
12052;SDS011;6087;48.982;12.064;2023-02-21T08:13:17;6.17;;;4.07;;
12052;SDS011;6087;48.982;12.064;2023-02-21T08:15:45;7.63;;;4.67;;
12052;SDS011;6087;48.982;12.064;2023-02-21T08:18:15;7.70;;;5.00;;
12052;SDS011;6087;48.982;12.064;2023-02-21T08:20:45;8.27;;;4.60;;
12052;SDS011;6087;48.982;12.064;2023-02-21T08:23:12;7.93;;;5.50;;
12052;SDS011;6087;48.982;12.064;2023-02-21T08:25:38;5.40;;;4.50;;
12052;SDS011;6087;48.982;12.064;2023-02-21T08:28:05;5.70;;;4.43;;
12052;SDS011;6087;48.982;12.064;2023-02-21T08:30:32;6.93;;;4.50;;
12052;SDS011;6087;48.982;12.064;2023-02-21T08:33:00;8.83;;;5.27;;
12052;SDS011;6087;48.982;12.064;2023-02-21T08:35:28;6.97;;;5.87;;
12052;SDS011;6087;48.982;12.064;2023-02-21T08:37:55;6.73;;;4.57;;
12052;SDS011;6087;48.982;12.064;2023-02-21T08:40:27;8.27;;;4.90;;
12052;SDS011;6087;48.982;12.064;2023-02-21T08:42:54;7.23;;;4.77;;
12052;SDS011;6087;48.982;12.064;2023-02-21T08:45:22;5.73;;;3.77;;
12052;SDS011;6087;48.982;12.064;2023-02-21T08:47:50;7.23;;;4.20;;
12052;SDS011;6087;48.982;12.064;2023-02-21T08:50:19;5.93;;;4.20;;
12052;SDS011;6087;48.982;12.064;2023-02-21T08:52:51;6.53;;;4.37;;
12052;SDS011;6087;48.982;12.064;2023-02-21T08:55:18;6.13;;;4.73;;
12052;SDS011;6087;48.982;12.064;2023-02-21T08:57:46;7.07;;;4.73;;
12052;SDS011;6087;48.982;12.064;2023-02-21T09:00:14;6.83;;;5.47;;
12052;SDS011;6087;48.982;12.064;2023-02-21T09:02:42;5.67;;;4.60;;
12052;SDS011;6087;48.982;12.064;2023-02-21T09:05:11;6.33;;;4.57;;
12052;SDS011;6087;48.982;12.064;2023-02-21T09:07:41;8.77;;;4.63;;
12052;SDS011;6087;48.982;12.064;2023-02-21T09:10:09;6.40;;;4.47;;
12052;SDS011;6087;48.982;12.064;2023-02-21T09:12:36;7.30;;;5.33;;
12052;SDS011;6087;48.982;12.064;2023-02-21T09:15:04;5.70;;;4.40;;
12052;SDS011;6087;48.982;12.064;2023-02-21T09:17:32;7.00;;;4.83;;
12052;SDS011;6087;48.982;12.064;2023-02-21T09:19:59;5.87;;;4.67;;
12052;SDS011;6087;48.982;12.064;2023-02-21T09:22:26;5.57;;;4.17;;
12052;SDS011;6087;48.982;12.064;2023-02-21T09:24:57;5.37;;;4.53;;
12052;SDS011;6087;48.982;12.064;2023-02-21T09:27:24;4.97;;;4.47;;
12052;SDS011;6087;48.982;12.064;2023-02-21T09:30:01;6.33;;;4.53;;
12052;SDS011;6087;48.982;12.064;2023-02-21T09:32:29;13.03;;;5.57;;
12052;SDS011;6087;48.982;12.064;2023-02-21T09:34:56;5.63;;;4.60;;
12052;SDS011;6087;48.982;12.064;2023-02-21T09:37:23;8.50;;;4.43;;
12052;SDS011;6087;48.982;12.064;2023-02-21T09:39:51;6.23;;;4.73;;
12052;SDS011;6087;48.982;12.064;2023-02-21T09:42:19;6.67;;;4.77;;
12052;SDS011;6087;48.982;12.064;2023-02-21T09:44:50;5.27;;;4.70;;
12052;SDS011;6087;48.982;12.064;2023-02-21T09:47:19;5.63;;;4.70;;
12052;SDS011;6087;48.982;12.064;2023-02-21T09:49:53;5.90;;;4.13;;
12052;SDS011;6087;48.982;12.064;2023-02-21T09:52:26;7.90;;;5.50;;
12052;SDS011;6087;48.982;12.064;2023-02-21T09:54:57;6.87;;;5.00;;
12052;SDS011;6087;48.982;12.064;2023-02-21T09:57:29;6.30;;;5.07;;
12052;SDS011;6087;48.982;12.064;2023-02-21T09:59:56;7.80;;;4.67;;
12052;SDS011;6087;48.982;12.064;2023-02-21T10:02:29;10.13;;;5.37;;
12052;SDS011;6087;48.982;12.064;2023-02-21T10:05:13;6.83;;;4.20;;
12052;SDS011;6087;48.982;12.064;2023-02-21T10:07:47;5.30;;;4.80;;
12052;SDS011;6087;48.982;12.064;2023-02-21T10:10:24;9.20;;;5.33;;
12052;SDS011;6087;48.982;12.064;2023-02-21T10:13:00;6.33;;;4.10;;
12052;SDS011;6087;48.982;12.064;2023-02-21T10:15:36;6.53;;;5.43;;
12052;SDS011;6087;48.982;12.064;2023-02-21T10:18:13;7.30;;;4.43;;
12052;SDS011;6087;48.982;12.064;2023-02-21T10:20:47;6.07;;;4.73;;
12052;SDS011;6087;48.982;12.064;2023-02-21T10:23:18;6.13;;;4.60;;
12052;SDS011;6087;48.982;12.064;2023-02-21T10:25:48;6.00;;;3.93;;
12052;SDS011;6087;48.982;12.064;2023-02-21T10:28:25;6.37;;;4.20;;
12052;SDS011;6087;48.982;12.064;2023-02-21T10:30:54;7.13;;;4.70;;
12052;SDS011;6087;48.982;12.064;2023-02-21T10:33:24;6.07;;;4.73;;
12052;SDS011;6087;48.982;12.064;2023-02-21T10:35:51;4.53;;;4.00;;
12052;SDS011;6087;48.982;12.064;2023-02-21T10:38:22;5.13;;;4.13;;
12052;SDS011;6087;48.982;12.064;2023-02-21T10:40:52;7.47;;;4.88;;
12052;SDS011;6087;48.982;12.064;2023-02-21T10:43:27;8.23;;;4.63;;
12052;SDS011;6087;48.982;12.064;2023-02-21T10:45:59;6.25;;;4.82;;
12052;SDS011;6087;48.982;12.064;2023-02-21T10:48:29;5.47;;;4.28;;
12052;SDS011;6087;48.982;12.064;2023-02-21T10:51:04;7.07;;;4.72;;
12052;SDS011;6087;48.982;12.064;2023-02-21T10:53:33;6.70;;;4.65;;
12052;SDS011;6087;48.982;12.064;2023-02-21T10:56:21;6.72;;;4.63;;
12052;SDS011;6087;48.982;12.064;2023-02-21T10:58:55;7.70;;;4.93;;
12052;SDS011;6087;48.982;12.064;2023-02-21T11:01:40;7.97;;;4.55;;
12052;SDS011;6087;48.982;12.064;2023-02-21T11:04:21;5.78;;;4.45;;
12052;SDS011;6087;48.982;12.064;2023-02-21T11:06:52;4.63;;;4.15;;
12052;SDS011;6087;48.982;12.064;2023-02-21T11:09:29;7.50;;;4.00;;
12052;SDS011;6087;48.982;12.064;2023-02-21T11:11:59;6.65;;;4.43;;
12052;SDS011;6087;48.982;12.064;2023-02-21T11:14:31;6.00;;;3.80;;
12052;SDS011;6087;48.982;12.064;2023-02-21T11:17:06;5.68;;;4.20;;
12052;SDS011;6087;48.982;12.064;2023-02-21T11:19:45;6.68;;;3.88;;
12052;SDS011;6087;48.982;12.064;2023-02-21T11:22:17;6.28;;;4.03;;
12052;SDS011;6087;48.982;12.064;2023-02-21T11:24:48;6.65;;;3.92;;
12052;SDS011;6087;48.982;12.064;2023-02-21T11:27:26;7.65;;;4.90;;
12052;SDS011;6087;48.982;12.064;2023-02-21T11:29:57;8.40;;;4.57;;
12052;SDS011;6087;48.982;12.064;2023-02-21T11:32:27;5.38;;;4.45;;
12052;SDS011;6087;48.982;12.064;2023-02-21T11:35:02;9.48;;;4.78;;
12052;SDS011;6087;48.982;12.064;2023-02-21T11:37:33;7.20;;;4.70;;
12052;SDS011;6087;48.982;12.064;2023-02-21T11:40:20;5.72;;;4.82;;
12052;SDS011;6087;48.982;12.064;2023-02-21T11:45:41;6.20;;;4.07;;
12052;SDS011;6087;48.982;12.064;2023-02-21T11:48:14;4.82;;;3.75;;
12052;SDS011;6087;48.982;12.064;2023-02-21T11:50:44;5.18;;;4.10;;
12052;SDS011;6087;48.982;12.064;2023-02-21T11:53:16;6.45;;;3.83;;
12052;SDS011;6087;48.982;12.064;2023-02-21T11:55:50;3.88;;;3.53;;
12052;SDS011;6087;48.982;12.064;2023-02-21T11:58:26;6.28;;;3.15;;
12052;SDS011;6087;48.982;12.064;2023-02-21T12:00:59;8.02;;;3.10;;
12052;SDS011;6087;48.982;12.064;2023-02-21T12:03:36;4.63;;;3.47;;
12052;SDS011;6087;48.982;12.064;2023-02-21T12:06:17;4.45;;;3.13;;
12052;SDS011;6087;48.982;12.064;2023-02-21T12:08:54;4.03;;;2.80;;
12052;SDS011;6087;48.982;12.064;2023-02-21T12:11:27;4.68;;;3.58;;
12052;SDS011;6087;48.982;12.064;2023-02-21T12:14:13;5.20;;;3.03;;
12052;SDS011;6087;48.982;12.064;2023-02-21T12:16:53;4.28;;;2.95;;
12052;SDS011;6087;48.982;12.064;2023-02-21T12:19:30;5.38;;;3.55;;
12052;SDS011;6087;48.982;12.064;2023-02-21T12:22:21;4.18;;;3.10;;
12052;SDS011;6087;48.982;12.064;2023-02-21T12:24:58;3.92;;;2.85;;
12052;SDS011;6087;48.982;12.064;2023-02-21T12:27:35;4.60;;;2.85;;
12052;SDS011;6087;48.982;12.064;2023-02-21T12:30:15;3.80;;;2.80;;
12052;SDS011;6087;48.982;12.064;2023-02-21T12:32:55;4.03;;;2.00;;
12052;SDS011;6087;48.982;12.064;2023-02-21T12:38:18;4.07;;;2.65;;
12052;SDS011;6087;48.982;12.064;2023-02-21T12:40:57;5.00;;;3.10;;
12052;SDS011;6087;48.982;12.064;2023-02-21T12:43:34;5.07;;;3.20;;
12052;SDS011;6087;48.982;12.064;2023-02-21T12:46:10;3.63;;;2.30;;
12052;SDS011;6087;48.982;12.064;2023-02-21T12:48:54;5.13;;;3.15;;
12052;SDS011;6087;48.982;12.064;2023-02-21T12:51:25;4.28;;;3.28;;
12052;SDS011;6087;48.982;12.064;2023-02-21T12:53:57;3.25;;;2.60;;
12052;SDS011;6087;48.982;12.064;2023-02-21T12:56:28;4.10;;;3.03;;
12052;SDS011;6087;48.982;12.064;2023-02-21T12:59:02;4.22;;;3.15;;
12052;SDS011;6087;48.982;12.064;2023-02-21T13:01:35;2.70;;;2.50;;
12052;SDS011;6087;48.982;12.064;2023-02-21T13:04:12;2.63;;;2.00;;
12052;SDS011;6087;48.982;12.064;2023-02-21T13:06:47;1.95;;;1.75;;
12052;SDS011;6087;48.982;12.064;2023-02-21T13:09:19;4.45;;;1.83;;
12052;SDS011;6087;48.982;12.064;2023-02-21T13:11:54;1.65;;;1.38;;
12052;SDS011;6087;48.982;12.064;2023-02-21T13:14:27;1.50;;;1.40;;
12052;SDS011;6087;48.982;12.064;2023-02-21T13:16:59;3.70;;;1.30;;
12052;SDS011;6087;48.982;12.064;2023-02-21T13:19:30;1.67;;;1.50;;
12052;SDS011;6087;48.982;12.064;2023-02-21T13:22:05;2.47;;;1.50;;
12052;SDS011;6087;48.982;12.064;2023-02-21T13:25:31;1.30;;;1.17;;
12052;SDS011;6087;48.982;12.064;2023-02-21T13:28:07;1.30;;;1.20;;
12052;SDS011;6087;48.982;12.064;2023-02-21T13:30:41;1.55;;;1.23;;
12052;SDS011;6087;48.982;12.064;2023-02-21T13:33:20;1.05;;;0.95;;
12052;SDS011;6087;48.982;12.064;2023-02-21T13:35:51;1.95;;;1.20;;
12052;SDS011;6087;48.982;12.064;2023-02-21T13:38:21;1.05;;;1.00;;
12052;SDS011;6087;48.982;12.064;2023-02-21T13:40:48;1.30;;;0.80;;
12052;SDS011;6087;48.982;12.064;2023-02-21T13:43:20;1.90;;;1.40;;
12052;SDS011;6087;48.982;12.064;2023-02-21T13:45:50;1.42;;;1.00;;
12052;SDS011;6087;48.982;12.064;2023-02-21T13:48:21;1.23;;;0.90;;
12052;SDS011;6087;48.982;12.064;2023-02-21T13:50:52;0.93;;;0.73;;
12052;SDS011;6087;48.982;12.064;2023-02-21T13:53:20;1.10;;;0.80;;
12052;SDS011;6087;48.982;12.064;2023-02-21T14:02:15;2.10;;;0.98;;
12052;SDS011;6087;48.982;12.064;2023-02-21T14:07:52;2.95;;;0.80;;
12052;SDS011;6087;48.982;12.064;2023-02-21T14:10:39;2.05;;;1.00;;
12052;SDS011;6087;48.982;12.064;2023-02-21T14:13:23;0.80;;;0.70;;
12052;SDS011;6087;48.982;12.064;2023-02-21T14:15:56;3.13;;;0.95;;
12052;SDS011;6087;48.982;12.064;2023-02-21T14:18:26;0.70;;;0.50;;
12052;SDS011;6087;48.982;12.064;2023-02-21T14:20:55;1.30;;;0.90;;
12052;SDS011;6087;48.982;12.064;2023-02-21T14:23:30;1.33;;;0.88;;
12052;SDS011;6087;48.982;12.064;2023-02-21T14:26:04;3.65;;;1.48;;
12052;SDS011;6087;48.982;12.064;2023-02-21T14:31:45;1.02;;;0.80;;
12052;SDS011;6087;48.982;12.064;2023-02-21T14:34:14;1.55;;;0.98;;
12052;SDS011;6087;48.982;12.064;2023-02-21T14:36:47;2.10;;;1.40;;
12052;SDS011;6087;48.982;12.064;2023-02-21T14:39:18;1.65;;;1.50;;
12052;SDS011;6087;48.982;12.064;2023-02-21T14:41:53;1.63;;;1.45;;
12052;SDS011;6087;48.982;12.064;2023-02-21T14:44:33;2.47;;;1.98;;
12052;SDS011;6087;48.982;12.064;2023-02-21T14:47:20;2.13;;;1.85;;
12052;SDS011;6087;48.982;12.064;2023-02-21T14:50:16;3.55;;;1.83;;
12052;SDS011;6087;48.982;12.064;2023-02-21T14:53:04;2.85;;;2.03;;
12052;SDS011;6087;48.982;12.064;2023-02-21T14:56:17;3.55;;;1.80;;
12052;SDS011;6087;48.982;12.064;2023-02-21T14:59:08;2.53;;;2.33;;
12052;SDS011;6087;48.982;12.064;2023-02-21T15:02:01;3.38;;;2.20;;
12052;SDS011;6087;48.982;12.064;2023-02-21T15:04:40;2.05;;;1.80;;
12052;SDS011;6087;48.982;12.064;2023-02-21T15:07:14;2.75;;;1.65;;
12052;SDS011;6087;48.982;12.064;2023-02-21T15:12:40;2.50;;;1.70;;
12052;SDS011;6087;48.982;12.064;2023-02-21T15:15:13;3.17;;;2.20;;
12052;SDS011;6087;48.982;12.064;2023-02-21T15:17:42;3.83;;;2.05;;
12052;SDS011;6087;48.982;12.064;2023-02-21T15:20:13;2.70;;;2.45;;
12052;SDS011;6087;48.982;12.064;2023-02-21T15:22:42;2.25;;;1.67;;
12052;SDS011;6087;48.982;12.064;2023-02-21T15:25:17;3.90;;;1.60;;
12052;SDS011;6087;48.982;12.064;2023-02-21T15:28:04;2.03;;;1.40;;
12052;SDS011;6087;48.982;12.064;2023-02-21T15:30:33;3.15;;;1.55;;
12052;SDS011;6087;48.982;12.064;2023-02-21T15:33:14;1.67;;;1.50;;
12052;SDS011;6087;48.982;12.064;2023-02-21T15:35:44;1.63;;;1.42;;
12052;SDS011;6087;48.982;12.064;2023-02-21T15:38:16;1.45;;;1.33;;
12052;SDS011;6087;48.982;12.064;2023-02-21T15:40:48;2.30;;;1.40;;
12052;SDS011;6087;48.982;12.064;2023-02-21T15:43:23;2.88;;;1.70;;
12052;SDS011;6087;48.982;12.064;2023-02-21T15:45:55;2.17;;;1.95;;
12052;SDS011;6087;48.982;12.064;2023-02-21T15:48:24;3.83;;;2.03;;
12052;SDS011;6087;48.982;12.064;2023-02-21T15:50:51;5.03;;;2.15;;
12052;SDS011;6087;48.982;12.064;2023-02-21T15:53:19;2.67;;;1.92;;
12052;SDS011;6087;48.982;12.064;2023-02-21T15:55:48;4.13;;;2.55;;
12052;SDS011;6087;48.982;12.064;2023-02-21T15:58:17;6.80;;;2.40;;
12052;SDS011;6087;48.982;12.064;2023-02-21T16:00:51;2.40;;;2.20;;
12052;SDS011;6087;48.982;12.064;2023-02-21T16:03:33;2.33;;;2.10;;
12052;SDS011;6087;48.982;12.064;2023-02-21T16:06:12;4.82;;;2.65;;